Time;durP1;ratioP1;P1;durP2;ratioP2;P2;SDS_P1;SDS_P2;PMS_P1;PMS_P2;Temp;Humidity;BMP_temperature;BMP_pressure;BME280_temperature;BME280_humidity;BME280_pressure;Samples;Min_cycle;Max_cycle;Signal;HPM_P1;HPM_P2
2021/04/06 04:15:38;;;;;;;7.13;3.22;;;;;;;11.19;48.28;98895.00;5660487;24;20158;-75
2021/04/06 04:18:04;;;;;;;7.03;4.00;;;;;;;10.95;49.56;98892.41;4862397;29;20050;-75
2021/04/06 04:20:31;;;;;;;6.38;3.92;;;;;;;10.82;49.67;98894.25;4862109;29;20050;-77
2021/04/06 04:22:57;;;;;;;3.83;3.40;;;;;;;10.55;50.59;98890.06;4851496;29;20046;-75
2021/04/06 04:25:24;;;;;;;7.63;3.78;;;;;;;10.63;50.84;98892.13;4842753;29;20509;-75
2021/04/06 04:27:51;;;;;;;5.82;3.63;;;;;;;10.71;50.52;98890.63;4841700;29;20087;-74
2021/04/06 04:30:35;;;;;;;8.35;3.45;;;;;;;10.78;50.33;98893.63;4842799;29;20069;-74
2021/04/06 04:33:04;;;;;;;7.10;3.38;;;;;;;10.88;49.72;98896.41;4841856;29;20049;-74
2021/04/06 04:35:31;;;;;;;6.53;4.45;;;;;;;10.92;49.76;98888.25;4842924;29;20050;-73
2021/04/06 04:37:58;;;;;;;6.63;3.90;;;;;;;10.63;50.95;98885.13;4841772;29;20417;-73
2021/04/06 04:40:24;;;;;;;6.28;3.83;;;;;;;10.62;51.24;98887.84;4840266;29;20129;-73
2021/04/06 04:42:53;;;;;;;4.68;3.78;;;;;;;10.89;50.57;98888.47;4841315;29;20526;-73
2021/04/06 04:45:20;;;;;;;4.30;3.17;;;;;;;10.75;51.12;98893.81;4835596;29;20497;-72
2021/04/06 04:47:48;;;;;;;10.48;4.07;;;;;;;10.74;50.95;98898.22;4842495;29;20070;-73
2021/04/06 04:50:18;;;;;;;7.45;3.70;;;;;;;10.70;51.35;98899.38;4841272;29;20049;-73
2021/04/06 04:52:48;;;;;;;7.47;5.00;;;;;;;10.71;51.39;98895.84;4842602;29;20078;-74
2021/04/06 04:55:16;;;;;;;5.18;3.70;;;;;;;10.60;51.67;98892.31;4841352;29;20049;-74
2021/04/06 04:57:43;;;;;;;5.95;3.83;;;;;;;10.80;50.98;98899.53;4843031;29;20129;-74
2021/04/06 05:00:11;;;;;;;14.57;4.63;;;;;;;10.83;51.27;98894.13;4841897;29;20114;-72
2021/04/06 05:02:39;;;;;;;6.60;3.55;;;;;;;10.91;50.66;98902.19;4839872;29;20157;-72
2021/04/06 05:05:07;;;;;;;5.57;3.92;;;;;;;10.89;51.10;98888.47;4839926;29;20046;-73
2021/04/06 05:07:39;;;;;;;9.38;3.97;;;;;;;10.93;51.15;98894.28;4838559;29;20042;-73
2021/04/06 05:10:10;;;;;;;11.45;3.70;;;;;;;10.89;51.22;98888.47;4837227;29;20133;-76
2021/04/06 05:12:38;;;;;;;6.90;3.58;;;;;;;11.00;50.98;98890.28;4834313;29;20061;-76
2021/04/06 05:15:06;;;;;;;7.40;3.42;;;;;;;11.05;51.08;98892.56;4838068;29;20066;-75
2021/04/06 05:17:32;;;;;;;6.75;3.97;;;;;;;11.12;51.23;98894.59;4840579;29;20065;-76
2021/04/06 05:19:59;;;;;;;7.60;4.18;;;;;;;11.24;51.05;98890.28;4833776;29;20077;-75
2021/04/06 05:22:26;;;;;;;8.30;3.88;;;;;;;11.39;50.56;98890.88;4828783;29;20061;-75
2021/04/06 05:24:52;;;;;;;6.03;3.60;;;;;;;11.61;50.38;98896.16;4828419;29;20374;-76
2021/04/06 05:27:19;;;;;;;7.30;3.40;;;;;;;11.54;51.07;98902.78;4837815;29;20083;-73
2021/04/06 05:29:45;;;;;;;8.13;3.40;;;;;;;11.89;50.19;98899.31;4828073;29;20061;-76
2021/04/06 05:32:11;;;;;;;5.65;4.30;;;;;;;12.33;49.00;98898.47;4839275;29;20136;-76
2021/04/06 05:34:38;;;;;;;14.88;5.45;;;;;;;12.55;48.52;98898.44;4835373;29;20992;-76
2021/04/06 05:37:04;;;;;;;8.82;4.03;;;;;;;12.61;48.80;98907.56;4834518;29;20090;-76
2021/04/06 05:39:31;;;;;;;10.02;3.85;;;;;;;12.67;48.71;98906.25;4833449;29;20104;-77
2021/04/06 05:41:57;;;;;;;9.93;4.63;;;;;;;12.93;48.23;98910.22;4829090;29;20103;-79
2021/04/06 05:44:24;;;;;;;9.80;4.18;;;;;;;12.77;48.45;98912.41;4836561;29;20452;-74
2021/04/06 05:46:53;;;;;;;8.35;4.35;;;;;;;13.10;47.93;98919.31;4826834;29;20163;-75
2021/04/06 05:49:27;;;;;;;14.07;3.60;;;;;;;13.41;47.52;98922.91;4834611;29;20103;-75
2021/04/06 05:51:54;;;;;;;12.32;3.85;;;;;;;13.70;46.72;98922.28;4832174;29;20111;-71
2021/04/06 05:54:22;;;;;;;6.60;4.22;;;;;;;13.43;47.21;98922.78;4836995;29;20041;-78
2021/04/06 05:56:49;;;;;;;10.70;4.38;;;;;;;13.47;47.57;98945.94;4833705;29;20116;-72
2021/04/06 05:59:15;;;;;;;9.27;4.95;;;;;;;12.97;47.18;98956.09;4836103;29;20601;-73
2021/04/06 06:01:43;;;;;;;9.05;4.80;;;;;;;12.52;48.03;98961.44;4836635;29;20095;-75
2021/04/06 06:04:19;;;;;;;10.55;4.85;;;;;;;12.09;47.93;98979.59;4832053;29;20130;-74
2021/04/06 06:06:46;;;;;;;12.60;5.10;;;;;;;11.51;49.57;98984.75;4830995;29;20089;-74
2021/04/06 06:09:26;;;;;;;11.35;6.28;;;;;;;11.76;48.30;98977.69;4840568;29;20090;-74
2021/04/06 06:12:03;;;;;;;8.65;6.35;;;;;;;11.58;48.64;98984.31;4830890;29;20081;-73
2021/04/06 06:14:35;;;;;;;9.90;7.85;;;;;;;11.08;50.03;98986.19;4834822;29;20505;-74
2021/04/06 06:17:11;;;;;;;8.15;6.88;;;;;;;11.34;49.65;98992.97;4833643;29;20062;-74
2021/04/06 06:19:38;;;;;;;12.25;7.25;;;;;;;11.32;50.02;98992.25;4832152;29;20042;-74
2021/04/06 06:22:13;;;;;;;14.45;7.82;;;;;;;11.86;48.67;98991.75;4828288;29;20058;-74
2021/04/06 06:24:45;;;;;;;10.60;7.82;;;;;;;12.00;48.26;98982.91;4831039;29;20061;-73
2021/04/06 06:27:24;;;;;;;9.10;7.82;;;;;;;11.87;48.78;98980.34;4827136;29;20058;-73
2021/04/06 06:29:51;;;;;;;14.73;7.47;;;;;;;12.09;48.33;98983.97;4835357;29;20042;-74
2021/04/06 06:32:22;;;;;;;12.35;8.73;;;;;;;12.11;48.27;98989.91;4824424;29;20098;-77
2021/04/06 06:35:09;;;;;;;10.93;8.45;;;;;;;12.47;47.82;98978.41;4829560;29;20046;-75
2021/04/06 06:37:35;;;;;;;12.70;8.43;;;;;;;12.97;46.45;98982.25;4835638;29;20057;-74
2021/04/06 06:40:04;;;;;;;7.55;6.47;;;;;;;13.44;45.28;98980.25;4840730;29;20471;-75
2021/04/06 06:42:39;;;;;;;12.93;7.00;;;;;;;13.35;44.96;98978.38;4838095;29;20042;-74
2021/04/06 06:45:22;;;;;;;7.57;6.63;;;;;;;13.23;45.01;98982.00;4838590;29;20042;-74
2021/04/06 06:47:56;;;;;;;10.73;7.18;;;;;;;12.99;45.50;98985.56;4839647;29;20050;-75
2021/04/06 06:50:24;;;;;;;11.55;7.57;;;;;;;13.11;45.41;98974.16;4840145;29;20054;-74
2021/04/06 06:52:55;;;;;;;13.48;7.70;;;;;;;13.20;44.93;98976.97;4839651;29;20072;-76
2021/04/06 06:55:25;;;;;;;9.82;8.13;;;;;;;13.19;44.89;98970.91;4839765;29;20133;-73
2021/04/06 06:58:05;;;;;;;12.88;7.93;;;;;;;13.07;45.32;98972.72;4838701;29;20066;-73
2021/04/06 07:00:32;;;;;;;13.70;8.82;;;;;;;13.13;45.32;98967.94;4830797;29;20510;-73
2021/04/06 07:02:58;;;;;;;10.38;8.20;;;;;;;13.25;45.14;98969.59;4838955;29;20083;-76
2021/04/06 07:05:27;;;;;;;12.25;7.03;;;;;;;13.47;44.59;98964.25;4838458;29;20408;-68
2021/04/06 07:08:05;;;;;;;14.00;8.98;;;;;;;13.28;45.08;98969.38;4829709;29;20512;-67
2021/04/06 07:10:40;;;;;;;10.88;8.75;;;;;;;13.19;45.22;98965.66;4840171;29;20413;-67
2021/04/06 07:13:08;;;;;;;8.75;7.68;;;;;;;13.30;44.75;98956.97;4837096;29;20069;-68
2021/04/06 07:15:39;;;;;;;8.05;7.20;;;;;;;13.36;44.67;98952.06;4838891;29;20060;-66
2021/04/06 07:18:17;;;;;;;9.38;7.22;;;;;;;13.32;45.29;98960.31;4839855;29;20133;-66
2021/04/06 07:20:49;;;;;;;13.80;9.68;;;;;;;13.40;46.34;98955.25;4836871;29;20042;-66
2021/04/06 07:23:37;;;;;;;9.23;7.38;;;;;;;13.29;48.08;98957.94;4838816;29;20046;-66
2021/04/06 07:26:06;;;;;;;12.23;6.40;;;;;;;13.28;48.45;98964.13;4822425;29;20468;-65
2021/04/06 07:28:32;;;;;;;12.93;7.82;;;;;;;13.28;48.56;98969.38;4838175;29;20056;-70
2021/04/06 07:31:02;;;;;;;8.25;7.45;;;;;;;13.34;48.09;98961.84;4842210;29;20435;-65
2021/04/06 07:33:30;;;;;;;15.63;7.30;;;;;;;13.42;47.53;98974.28;4841797;29;20218;-65
2021/04/06 07:36:02;;;;;;;15.90;8.65;;;;;;;13.29;47.89;98965.78;4843622;29;20042;-67
2021/04/06 07:38:29;;;;;;;10.52;7.43;;;;;;;12.90;48.64;98978.47;4841907;29;20083;-67
2021/04/06 07:40:57;;;;;;;11.65;7.80;;;;;;;12.85;48.61;98978.84;4843850;29;20354;-72
2021/04/06 07:43:24;;;;;;;11.85;7.85;;;;;;;12.84;48.44;98974.56;4841868;29;20052;-79
2021/04/06 07:45:51;;;;;;;10.80;8.35;;;;;;;12.91;48.78;98977.53;4843848;29;20133;-76
2021/04/06 07:48:45;;;;;;;13.02;9.18;;;;;;;12.56;49.51;98967.22;4835271;29;20471;-77
2021/04/06 07:51:17;;;;;;;14.57;7.03;;;;;;;12.78;48.85;98976.81;4839596;29;20138;-78
2021/04/06 07:54:16;;;;;;;9.93;7.28;;;;;;;12.90;49.06;98977.66;4833686;29;20099;-78
2021/04/06 07:56:53;;;;;;;13.13;8.45;;;;;;;12.64;49.11;98980.53;4820090;29;20098;-68
2021/04/06 07:59:19;;;;;;;13.45;9.23;;;;;;;12.71;49.13;98980.88;4837864;29;20060;-71
2021/04/06 08:02:02;;;;;;;13.75;8.88;;;;;;;12.74;49.14;98985.88;4842033;29;20503;-70
2021/04/06 08:04:38;;;;;;;15.93;9.18;;;;;;;12.75;49.37;98990.16;4837516;29;20150;-72
2021/04/06 08:07:20;;;;;;;11.98;8.90;;;;;;;12.51;50.85;98995.50;4840175;29;20050;-70
2021/04/06 08:09:52;;;;;;;15.90;8.15;;;;;;;12.50;51.11;99005.13;4842655;29;20102;-72
2021/04/06 08:12:25;;;;;;;15.55;9.05;;;;;;;12.30;53.43;99024.13;4841169;29;20762;-70
2021/04/06 08:15:08;;;;;;;13.20;8.77;;;;;;;12.18;56.50;99045.97;4836793;29;20057;-73
2021/04/06 08:17:35;;;;;;;16.45;9.43;;;;;;;11.65;58.89;99048.16;4839287;29;20050;-75
2021/04/06 08:20:13;;;;;;;17.52;10.95;;;;;;;11.70;60.61;99056.47;4840674;29;20103;-77
2021/04/06 08:22:43;;;;;;;20.83;11.45;;;;;;;11.81;61.01;99077.41;4841558;29;20473;-77
2021/04/06 08:25:18;;;;;;;16.40;10.32;;;;;;;11.60;62.71;99077.19;4840883;29;20050;-77
2021/04/06 08:27:48;;;;;;;20.42;11.90;;;;;;;11.49;62.99;99072.75;4838756;29;20050;-75
2021/04/06 08:30:26;;;;;;;18.33;11.13;;;;;;;11.51;63.89;99083.94;4838462;29;20129;-76
2021/04/06 08:32:59;;;;;;;14.95;10.07;;;;;;;11.70;63.67;99093.84;4841879;29;20053;-75
2021/04/06 08:35:47;;;;;;;17.10;9.13;;;;;;;11.76;64.05;99088.19;4840527;29;20052;-74
2021/04/06 08:38:22;;;;;;;16.42;11.68;;;;;;;11.73;64.79;99092.81;4841625;29;20330;-76
2021/04/06 08:41:04;;;;;;;15.55;10.43;;;;;;;11.80;63.56;99100.06;4838987;29;20505;-78
2021/04/06 08:43:35;;;;;;;19.90;9.98;;;;;;;11.78;64.39;99114.19;4839032;29;20070;-75
2021/04/06 08:46:06;;;;;;;12.10;10.68;;;;;;;11.80;64.59;99105.28;4837122;29;20073;-69
2021/04/06 08:48:58;;;;;;;17.38;10.05;;;;;;;11.61;63.98;99104.97;4837745;29;20136;-69
2021/04/06 08:52:03;;;;;;;12.52;10.35;;;;;;;11.71;65.60;99100.72;4838667;29;20065;-69
2021/04/06 08:54:32;;;;;;;12.95;8.90;;;;;;;11.97;64.63;99118.91;4765926;30;20052;-69
2021/04/06 08:57:01;;;;;;;11.88;9.63;;;;;;;12.04;64.71;99126.22;4764567;30;20161;-68
2021/04/06 08:59:39;;;;;;;11.23;9.35;;;;;;;12.10;64.93;99127.53;4802249;29;20053;-69
2021/04/06 09:02:16;;;;;;;20.83;10.57;;;;;;;12.01;66.03;99129.03;4835636;29;20137;-69
2021/04/06 09:04:44;;;;;;;18.98;10.10;;;;;;;11.90;66.26;99146.44;4833556;29;20047;-69
2021/04/06 09:07:21;;;;;;;18.52;10.30;;;;;;;11.75;66.34;99145.72;4828298;29;20466;-68
2021/04/06 09:09:52;;;;;;;13.45;8.80;;;;;;;11.89;66.09;99137.78;4838798;29;20110;-68
2021/04/06 09:12:18;;;;;;;11.82;7.82;;;;;;;11.87;66.25;99151.88;4838051;29;20405;-69
2021/04/06 09:14:46;;;;;;;14.60;9.45;;;;;;;11.96;67.00;99156.44;4838946;29;20439;-68
2021/04/06 09:17:13;;;;;;;18.35;10.40;;;;;;;11.90;66.50;99155.09;4837641;29;20058;-68
2021/04/06 09:19:40;;;;;;;11.23;9.07;;;;;;;12.06;65.67;99165.28;4835371;29;20042;-70
2021/04/06 09:22:09;;;;;;;15.13;10.30;;;;;;;12.06;66.15;99166.09;4840978;29;20073;-69
2021/04/06 09:24:36;;;;;;;16.65;11.18;;;;;;;11.93;66.54;99165.34;4832196;29;20052;-69
2021/04/06 09:27:04;;;;;;;14.43;10.75;;;;;;;11.91;67.06;99164.59;4829434;29;20046;-68
2021/04/06 09:29:37;;;;;;;19.15;12.13;;;;;;;11.96;66.25;99165.09;4832988;29;20043;-68
2021/04/06 09:32:06;;;;;;;14.88;11.30;;;;;;;12.04;65.40;99175.00;4838701;29;20054;-69
2021/04/06 09:34:39;;;;;;;17.45;12.38;;;;;;;12.06;65.28;99168.72;4839394;29;20073;-69
2021/04/06 09:37:09;;;;;;;12.65;10.60;;;;;;;11.97;66.70;99173.75;4839069;29;20061;-69
2021/04/06 09:39:39;;;;;;;15.18;11.38;;;;;;;12.05;64.90;99172.28;4839204;29;20129;-68
2021/04/06 09:42:06;;;;;;;24.35;12.30;;;;;;;11.92;66.22;99173.25;4836751;29;20462;-68
2021/04/06 09:44:39;;;;;;;19.17;12.05;;;;;;;11.92;66.65;99176.72;4840018;29;20053;-69
2021/04/06 09:47:11;;;;;;;13.02;10.85;;;;;;;11.95;66.45;99181.72;4838493;29;20410;-69
2021/04/06 09:49:46;;;;;;;17.25;12.18;;;;;;;11.86;67.05;99184.16;4841015;29;20049;-69
2021/04/06 09:52:20;;;;;;;15.75;11.77;;;;;;;11.66;69.05;99183.75;4845068;29;20057;-68
2021/04/06 09:55:03;;;;;;;20.77;14.50;;;;;;;11.84;67.71;99188.66;4833361;29;20061;-70
2021/04/06 09:57:35;;;;;;;23.73;18.30;;;;;;;11.84;68.16;99180.84;4840199;29;20481;-69
2021/04/06 10:00:09;;;;;;;25.20;19.35;;;;;;;11.86;68.71;99184.16;4840511;29;20068;-70
2021/04/06 10:02:36;;;;;;;17.48;15.68;;;;;;;11.88;68.10;99185.72;4833140;29;20099;-69
2021/04/06 10:05:04;;;;;;;26.25;13.27;;;;;;;11.75;69.37;99185.72;4838466;29;20064;-69
2021/04/06 10:07:35;;;;;;;16.08;12.13;;;;;;;12.10;67.72;99189.41;4839371;29;20497;-69
2021/04/06 10:10:07;;;;;;;15.63;12.57;;;;;;;12.05;68.78;99193.16;4839143;29;20057;-69
2021/04/06 10:12:34;;;;;;;15.13;12.30;;;;;;;12.03;67.56;99199.44;4839461;29;20049;-69
2021/04/06 10:15:00;;;;;;;17.30;12.52;;;;;;;11.74;68.45;99199.72;4833083;29;20095;-62
2021/04/06 10:17:37;;;;;;;14.73;12.82;;;;;;;11.70;67.88;99200.88;4836369;29;20561;-68
2021/04/06 10:20:14;;;;;;;16.30;13.35;;;;;;;11.65;68.02;99202.16;4834524;29;20046;-69
2021/04/06 10:23:09;;;;;;;16.98;14.65;;;;;;;11.72;68.51;99211.25;4821194;29;20046;-68
2021/04/06 10:25:42;;;;;;;20.25;14.35;;;;;;;11.27;68.42;99224.78;4820321;29;20042;-67
2021/04/06 10:28:23;;;;;;;22.25;14.15;;;;;;;10.92;70.28;99224.59;4840114;29;20137;-62
2021/04/06 10:30:58;;;;;;;21.95;15.85;;;;;;;10.80;71.76;99243.63;4838398;29;20060;-64
2021/04/06 10:33:29;;;;;;;18.07;13.90;;;;;;;11.01;71.17;99242.19;4840195;29;20081;-70
2021/04/06 10:36:05;;;;;;;12.80;11.57;;;;;;;11.23;69.50;99251.16;4837775;29;20076;-71
2021/04/06 10:38:38;;;;;;;13.00;11.68;;;;;;;11.17;70.38;99251.59;4827598;29;20058;-70
2021/04/06 10:41:10;;;;;;;14.45;12.13;;;;;;;11.25;69.66;99244.91;4834618;29;20071;-68
2021/04/06 10:43:43;;;;;;;18.67;11.65;;;;;;;11.30;69.25;99260.28;4833637;29;20145;-69
2021/04/06 10:46:13;;;;;;;10.48;8.63;;;;;;;11.14;69.22;99259.66;4835031;29;20091;-74
2021/04/06 10:48:43;;;;;;;14.27;10.45;;;;;;;11.26;69.94;99266.63;4838876;29;20096;-73
2021/04/06 10:51:19;;;;;;;10.75;9.55;;;;;;;11.09;69.62;99265.16;4835282;29;20549;-71
2021/04/06 10:53:53;;;;;;;11.82;10.65;;;;;;;11.16;70.43;99266.41;4830419;29;20069;-71
2021/04/06 10:56:22;;;;;;;10.48;9.15;;;;;;;11.18;69.76;99279.34;4830426;29;20062;-72
2021/04/06 10:59:06;;;;;;;15.07;10.43;;;;;;;11.15;69.51;99276.97;4829202;29;20142;-72
2021/04/06 11:01:44;;;;;;;9.90;5.85;;;;;;;10.42;71.17;99295.69;4834855;29;20412;-70
2021/04/06 11:04:14;;;;;;;5.70;2.80;;;;;;;9.75;71.39;99300.75;4836514;29;20514;-69
2021/04/06 11:07:02;;;;;;;4.35;1.92;;;;;;;9.45;74.41;99296.47;4837575;29;20054;-69
2021/04/06 11:09:46;;;;;;;5.40;2.00;;;;;;;9.38;72.75;99304.75;4834736;29;20080;-69
2021/04/06 11:12:14;;;;;;;;;;;;;;;9.33;72.81;99309.38;4839360;29;20092;-70
2021/04/06 11:14:43;;;;;;;4.82;2.72;;;;;;;9.34;72.43;99311.03;4842539;29;19967;-69
2021/04/06 11:17:12;;;;;;;5.10;3.40;;;;;;;9.37;72.63;99311.69;4829315;29;20054;-70
2021/04/06 11:19:44;;;;;;;6.78;4.85;;;;;;;9.19;72.95;99313.63;4830287;29;20051;-70
2021/04/06 11:22:13;;;;;;;4.78;2.40;;;;;;;9.20;71.57;99327.44;4827356;29;20076;-72
2021/04/06 11:24:42;;;;;;;2.42;2.22;;;;;;;9.08;71.31;99312.59;4829247;29;20046;-71
2021/04/06 11:27:10;;;;;;;6.28;2.08;;;;;;;9.09;70.40;99316.84;4829164;29;20434;-70
2021/04/06 11:29:38;;;;;;;3.50;2.25;;;;;;;9.19;70.25;99326.63;4830531;29;20476;-72
2021/04/06 11:32:09;;;;;;;6.20;2.40;;;;;;;9.01;70.34;99355.47;4829627;29;20490;-71
2021/04/06 11:34:35;;;;;;;10.20;3.05;;;;;;;8.78;70.67;99349.81;4826343;29;20456;-71
2021/04/06 11:37:03;;;;;;;5.20;2.78;;;;;;;8.74;71.33;99344.91;4827090;29;20042;-72
2021/04/06 11:39:38;;;;;;;14.77;4.47;;;;;;;9.06;70.50;99361.25;4827340;29;20046;-71
2021/04/06 11:42:07;;;;;;;7.03;2.75;;;;;;;8.96;69.88;99358.34;4829542;29;20493;-73
2021/04/06 11:44:34;;;;;;;4.05;2.30;;;;;;;8.85;69.92;99376.31;4828820;29;20073;-70
2021/04/06 11:47:01;;;;;;;5.07;3.05;;;;;;;8.68;69.79;99381.59;4828833;29;20050;-73
2021/04/06 11:49:28;;;;;;;6.10;2.22;;;;;;;8.72;70.52;99385.69;4825913;29;20048;-72
2021/04/06 11:51:54;;;;;;;10.15;2.40;;;;;;;8.43;71.46;99372.56;4824942;29;20070;-70
2021/04/06 11:54:23;;;;;;;3.47;1.77;;;;;;;8.42;70.98;99393.44;4826350;29;20122;-72
2021/04/06 11:56:51;;;;;;;3.17;1.90;;;;;;;8.47;68.92;99391.41;4828017;29;20042;-71
2021/04/06 11:59:18;;;;;;;2.80;1.35;;;;;;;8.21;69.20;99382.44;4827141;29;20487;-72
2021/04/06 12:01:45;;;;;;;3.90;1.60;;;;;;;8.28;68.73;99407.13;4828079;29;20077;-71
2021/04/06 12:04:13;;;;;;;4.53;2.22;;;;;;;8.18;70.07;99411.13;4827596;29;20450;-71
2021/04/06 12:06:41;;;;;;;4.90;1.83;;;;;;;8.12;66.74;99418.31;4824637;29;20074;-72
2021/04/06 12:09:08;;;;;;;2.13;1.48;;;;;;;7.83;67.67;99421.63;4824856;29;20051;-72
2021/04/06 12:11:36;;;;;;;3.53;1.52;;;;;;;8.06;67.00;99442.03;4826255;29;20080;-71
2021/04/06 12:14:04;;;;;;;5.72;1.40;;;;;;;7.91;67.76;99434.19;4826443;29;20069;-71
2021/04/06 12:16:31;;;;;;;2.42;1.23;;;;;;;7.97;66.55;99449.44;4825293;29;20532;-71
2021/04/06 12:18:58;;;;;;;4.32;1.65;;;;;;;7.65;67.92;99436.38;4826247;29;20046;-72
2021/04/06 12:21:24;;;;;;;1.90;1.60;;;;;;;7.82;67.46;99431.13;4825432;29;20043;-72
2021/04/06 12:23:52;;;;;;;7.40;1.60;;;;;;;7.76;67.83;99436.66;4828378;29;20050;-71
2021/04/06 12:26:18;;;;;;;3.65;1.40;;;;;;;7.54;67.99;99430.88;4826223;29;20419;-70
2021/04/06 12:28:45;;;;;;;1.75;1.20;;;;;;;7.65;68.85;99431.19;4837542;29;20079;-71
2021/04/06 12:31:12;;;;;;;5.13;1.48;;;;;;;7.76;67.34;99436.66;4835921;29;20161;-71
2021/04/06 12:33:38;;;;;;;2.13;1.40;;;;;;;7.61;66.48;99434.84;4835726;29;20494;-69
2021/04/06 12:36:05;;;;;;;1.88;1.48;;;;;;;7.63;66.93;99433.03;4839140;29;20042;-70
2021/04/06 12:38:32;;;;;;;3.28;1.40;;;;;;;7.63;66.66;99478.88;4822324;29;20084;-71
2021/04/06 12:40:59;;;;;;;7.40;1.52;;;;;;;7.62;65.90;99472.84;4834460;29;20400;-71
2021/04/06 12:43:25;;;;;;;1.42;1.33;;;;;;;7.43;67.14;99451.34;4840016;29;20102;-72
2021/04/06 12:45:52;;;;;;;2.03;1.60;;;;;;;7.77;66.36;99463.44;4838061;29;20078;-71
2021/04/06 12:48:19;;;;;;;12.52;2.75;;;;;;;7.51;66.14;99473.38;4840853;29;20125;-69
2021/04/06 12:50:45;;;;;;;3.33;1.48;;;;;;;7.46;66.33;99461.56;4837637;29;20046;-70
2021/04/06 12:53:12;;;;;;;1.63;1.20;;;;;;;7.26;66.78;99452.16;4841518;29;20497;-70
2021/04/06 12:55:39;;;;;;;1.27;1.17;;;;;;;7.26;66.91;99462.53;4840153;29;20057;-69
2021/04/06 12:58:05;;;;;;;3.47;1.30;;;;;;;7.38;66.70;99466.28;4838015;29;20498;-69
2021/04/06 13:00:32;;;;;;;4.22;1.60;;;;;;;7.40;65.84;99460.09;4841112;29;20153;-70
2021/04/06 13:02:58;;;;;;;2.95;1.60;;;;;;;7.49;66.37;99458.81;4839895;29;20054;-70
2021/04/06 13:05:25;;;;;;;2.30;1.52;;;;;;;7.68;66.48;99464.75;4840905;29;20094;-71
2021/04/06 13:07:54;;;;;;;3.55;1.40;;;;;;;7.65;66.33;99461.47;4839258;29;20393;-72
2021/04/06 13:10:22;;;;;;;3.95;1.30;;;;;;;7.28;67.31;99460.69;4839610;29;20119;-71
2021/04/06 13:12:50;;;;;;;1.67;1.25;;;;;;;7.39;68.10;99460.16;4838911;29;20058;-71
2021/04/06 13:15:17;;;;;;;1.10;1.10;;;;;;;7.46;67.14;99474.53;4840272;29;20136;-71
2021/04/06 13:17:44;;;;;;;2.85;1.67;;;;;;;7.25;67.78;99456.50;4840386;29;20639;-71
2021/04/06 13:20:14;;;;;;;6.60;2.58;;;;;;;7.24;68.29;99465.19;4833617;29;20156;-72
2021/04/06 13:22:41;;;;;;;1.52;1.00;;;;;;;7.54;65.90;99455.06;4827332;29;20050;-71
2021/04/06 13:25:10;;;;;;;2.03;1.10;;;;;;;7.38;65.35;99463.69;4826816;29;20050;-72
2021/04/06 13:27:38;;;;;;;0.90;0.90;;;;;;;7.23;65.29;99457.50;4825006;29;20427;-70
2021/04/06 13:30:07;;;;;;;1.45;1.10;;;;;;;7.10;66.45;99462.44;4825163;29;20099;-72
2021/04/06 13:32:35;;;;;;;1.35;0.90;;;;;;;7.03;65.68;99480.03;4824939;29;20489;-72
2021/04/06 13:35:02;;;;;;;1.80;1.15;;;;;;;7.31;65.83;99458.81;4825710;29;20073;-72
2021/04/06 13:37:29;;;;;;;1.30;1.20;;;;;;;7.12;66.30;99475.31;4824323;29;20050;-74
2021/04/06 13:39:55;;;;;;;3.20;1.20;;;;;;;7.13;66.45;99493.38;4838686;29;20072;-75
2021/04/06 13:42:27;;;;;;;1.17;1.08;;;;;;;7.22;65.90;99490.34;4841784;29;20042;-74
2021/04/06 13:44:54;;;;;;;1.10;1.10;;;;;;;7.12;66.50;99485.69;4838633;29;20525;-75
2021/04/06 13:47:21;;;;;;;2.33;1.20;;;;;;;6.95;65.94;99496.84;4840088;29;20118;-71
2021/04/06 13:49:48;;;;;;;1.75;1.20;;;;;;;6.94;65.90;99497.78;4840056;29;20036;-72
2021/04/06 13:52:14;;;;;;;1.38;1.27;;;;;;;7.13;65.65;99501.16;4839397;29;20050;-74
2021/04/06 13:54:42;;;;;;;3.50;1.30;;;;;;;7.11;65.47;99502.16;4839081;29;20046;-72
2021/04/06 13:57:09;;;;;;;2.90;1.20;;;;;;;6.95;65.80;99509.81;4840117;29;20046;-75
2021/04/06 13:59:35;;;;;;;1.20;1.20;;;;;;;6.91;65.83;99513.44;4838987;29;20042;-75
2021/04/06 14:02:02;;;;;;;1.00;1.00;;;;;;;7.15;65.30;99520.06;4837662;29;20046;-74
2021/04/06 14:04:29;;;;;;;1.35;1.10;;;;;;;6.78;66.40;99529.56;4838508;29;20077;-75
2021/04/06 14:06:55;;;;;;;1.90;1.20;;;;;;;6.94;66.41;99536.63;4838761;29;20046;-74
2021/04/06 14:09:23;;;;;;;1.00;0.90;;;;;;;6.78;65.35;99554.63;4837433;29;20042;-75
2021/04/06 14:11:50;;;;;;;1.10;1.00;;;;;;;6.85;66.13;99544.81;4838096;29;20193;-75
2021/04/06 14:14:17;;;;;;;1.00;1.00;;;;;;;6.88;65.83;99544.69;4838457;29;20046;-74
2021/04/06 14:16:44;;;;;;;1.00;0.95;;;;;;;6.64;66.58;99534.53;4839125;29;20058;-74
2021/04/06 14:19:13;;;;;;;3.40;1.10;;;;;;;6.74;66.89;99522.84;4838698;29;20136;-74
2021/04/06 14:21:41;;;;;;;2.92;1.20;;;;;;;6.91;65.58;99531.59;4838667;29;20065;-73
2021/04/06 14:24:09;;;;;;;1.02;0.98;;;;;;;6.90;65.20;99522.13;4840544;29;20081;-73
2021/04/06 14:26:38;;;;;;;1.20;1.00;;;;;;;6.77;65.12;99543.44;4837875;29;20156;-74
2021/04/06 14:29:07;;;;;;;2.42;1.25;;;;;;;7.02;65.27;99539.69;4838128;29;20034;-71
2021/04/06 14:31:38;;;;;;;1.95;1.20;;;;;;;6.87;65.02;99543.84;4838433;29;20038;-71
2021/04/06 14:34:06;;;;;;;1.63;1.10;;;;;;;6.75;65.14;99553.00;4839527;29;20068;-72
2021/04/06 14:36:34;;;;;;;1.13;1.10;;;;;;;6.87;66.00;99564.59;4838612;29;20091;-72
2021/04/06 14:39:05;;;;;;;1.90;1.73;;;;;;;6.92;64.87;99559.16;4838379;29;20125;-70
2021/04/06 14:41:32;;;;;;;3.08;1.23;;;;;;;7.05;64.84;99552.53;4836166;29;20050;-71
2021/04/06 14:43:58;;;;;;;1.95;1.00;;;;;;;7.09;64.49;99564.44;4840264;29;20136;-72
2021/04/06 14:46:26;;;;;;;1.20;1.00;;;;;;;7.03;64.09;99565.56;4838945;29;20038;-72
2021/04/06 14:48:56;;;;;;;1.10;1.10;;;;;;;7.01;64.00;99562.19;4840028;29;20053;-70
2021/04/06 14:51:30;;;;;;;1.20;1.10;;;;;;;7.05;63.54;99574.09;4838910;29;20102;-72
2021/04/06 14:53:58;;;;;;;1.05;1.05;;;;;;;7.09;63.83;99575.63;4836292;29;20050;-71
2021/04/06 14:56:26;;;;;;;1.33;1.25;;;;;;;7.08;64.31;99573.09;4839477;29;20038;-72
2021/04/06 14:58:56;;;;;;;1.42;1.23;;;;;;;7.23;64.35;99576.72;4839444;29;20042;-72
2021/04/06 15:01:25;;;;;;;3.00;1.10;;;;;;;6.97;64.85;99577.94;4840429;29;20050;-70
2021/04/06 15:03:54;;;;;;;1.25;1.00;;;;;;;7.09;63.83;99570.44;4838040;29;20107;-70
2021/04/06 15:06:23;;;;;;;1.38;1.25;;;;;;;7.21;63.16;99571.63;4836658;29;20141;-72
2021/04/06 15:08:56;;;;;;;3.33;1.30;;;;;;;6.90;64.65;99579.97;4836771;29;20110;-70
2021/04/06 15:11:24;;;;;;;1.75;1.20;;;;;;;7.03;64.67;99582.81;4836371;29;20125;-72
2021/04/06 15:13:51;;;;;;;1.70;1.60;;;;;;;7.06;63.32;99580.94;4834476;29;20091;-71
2021/04/06 15:16:18;;;;;;;1.02;1.02;;;;;;;7.17;64.04;99580.44;4824917;29;20061;-72
2021/04/06 15:18:50;;;;;;;1.30;1.20;;;;;;;7.42;63.29;99581.91;4825305;29;20050;-69
2021/04/06 15:21:17;;;;;;;1.45;1.10;;;;;;;7.20;63.78;99584.66;4822798;29;20046;-70
2021/04/06 15:23:44;;;;;;;1.23;1.10;;;;;;;7.42;63.67;99585.34;4822684;29;20047;-70
2021/04/06 15:26:14;;;;;;;1.20;1.10;;;;;;;7.46;63.17;99579.09;4833918;24;20066;-69
2021/04/06 15:28:42;;;;;;;2.58;1.10;;;;;;;7.48;62.44;99586.78;4837266;29;20516;-70
2021/04/06 15:31:12;;;;;;;2.15;1.20;;;;;;;7.48;62.28;99590.22;4826020;29;20141;-72
2021/04/06 15:33:39;;;;;;;1.50;1.20;;;;;;;7.47;61.90;99591.16;4837051;29;20069;-70
2021/04/06 15:36:07;;;;;;;2.08;1.20;;;;;;;7.26;61.96;99592.16;4840209;29;20042;-73
2021/04/06 15:38:39;;;;;;;1.40;1.30;;;;;;;7.20;62.17;99593.28;4839969;29;20079;-71
2021/04/06 15:41:11;;;;;;;1.20;1.02;;;;;;;7.22;62.07;99601.81;4838970;29;20056;-71
2021/04/06 15:43:40;;;;;;;0.82;0.82;;;;;;;6.92;62.66;99595.44;4842785;29;20113;-70
2021/04/06 15:46:08;;;;;;;0.98;0.98;;;;;;;7.03;61.76;99609.63;4839848;29;20057;-70
2021/04/06 15:48:35;;;;;;;1.77;1.10;;;;;;;6.98;62.31;99597.78;4833937;29;20098;-70
2021/04/06 15:51:03;;;;;;;1.00;0.90;;;;;;;6.81;62.42;99604.53;4823752;29;20072;-70
2021/04/06 15:53:37;;;;;;;6.60;1.10;;;;;;;6.75;62.93;99606.56;4840272;29;20156;-73
2021/04/06 15:56:07;;;;;;;1.10;1.10;;;;;;;6.99;63.43;99596.88;4827711;29;20481;-73
2021/04/06 15:58:34;;;;;;;2.83;1.10;;;;;;;7.13;61.72;99604.00;4834308;29;20043;-72
2021/04/06 16:01:04;;;;;;;1.13;1.02;;;;;;;7.14;61.74;99608.25;4837236;29;20623;-73